Time;durP1;ratioP1;P1;durP2;ratioP2;P2;SDS_P1;SDS_P2;PMS_P1;PMS_P2;Temp;Humidity;BMP_temperature;BMP_pressure;BME280_temperature;BME280_humidity;BME280_pressure;Samples;Min_cycle;Max_cycle;Signal;HPM_P1;HPM_P2
2022/07/05 00:01:39;;;;;;;1.40;1.00;;;14.00;99.90;13.40;100613;;;;585306;245;24019;-82
2022/07/05 00:04:07;;;;;;;4.63;1.30;;;14.00;99.90;13.40;100617;;;;585287;245;24017;-82
2022/07/05 00:06:35;;;;;;;1.40;1.20;;;14.00;99.90;13.30;100610;;;;585347;245;24020;-81
2022/07/05 00:09:04;;;;;;;1.70;0.87;;;13.90;99.90;13.30;100618;;;;585313;245;23997;-82
2022/07/05 00:11:32;;;;;;;1.13;1.10;;;13.90;99.90;13.30;100615;;;;585310;245;24001;-81
2022/07/05 00:14:01;;;;;;;1.40;1.30;;;13.90;99.90;13.30;100603;;;;585351;245;24009;-81
2022/07/05 00:16:29;;;;;;;3.33;1.47;;;13.90;99.90;13.30;100601;;;;585805;245;23989;-80
2022/07/05 00:19:02;;;;;;;2.83;1.37;;;13.90;99.90;13.30;100611;;;;585373;245;24083;-82
2022/07/05 00:21:26;;;;;;;1.67;1.57;;;13.90;99.90;13.20;100622;;;;585092;245;24010;-81
2022/07/05 00:23:56;;;;;;;1.50;1.40;;;13.80;99.90;13.30;100614;;;;585304;242;24075;-81
2022/07/05 00:26:24;;;;;;;4.37;1.50;;;13.80;99.90;13.20;100618;;;;585316;245;24015;-82
2022/07/05 00:28:53;;;;;;;1.30;1.20;;;13.80;99.90;13.20;100618;;;;585320;245;23998;-81
2022/07/05 00:31:22;;;;;;;1.37;1.27;;;13.80;99.90;13.20;100620;;;;585084;245;24012;-83
2022/07/05 00:33:50;;;;;;;1.17;1.10;;;13.80;99.90;13.20;100616;;;;586019;243;24020;-82
2022/07/05 00:36:19;;;;;;;1.87;1.10;;;13.80;99.90;13.20;100630;;;;586611;245;24037;-83
2022/07/05 00:38:49;;;;;;;2.53;1.40;;;13.80;99.90;13.20;100633;;;;586519;245;24044;-82
2022/07/05 00:41:17;;;;;;;3.20;1.07;;;13.80;99.90;13.20;100633;;;;586132;245;24010;-81
2022/07/05 00:43:54;;;;;;;1.30;1.20;;;13.80;99.90;13.20;100630;;;;585864;245;24004;-80
2022/07/05 00:46:22;;;;;;;0.87;0.87;;;13.80;99.90;13.10;100623;;;;585474;242;24007;-80
2022/07/05 00:48:53;;;;;;;2.60;1.23;;;13.70;99.90;13.10;100634;;;;585848;245;24022;-82
2022/07/05 00:51:22;;;;;;;1.03;0.90;;;13.70;99.90;13.10;100635;;;;585444;242;24073;-81
2022/07/05 00:53:47;;;;;;;1.90;1.33;;;13.70;99.90;13.10;100631;;;;580042;243;35283;-82
2022/07/05 00:56:21;;;;;;;2.83;1.33;;;13.70;99.90;13.20;100631;;;;580472;241;34274;-82
2022/07/05 00:58:44;;;;;;;1.50;1.37;;;13.70;99.90;13.20;100637;;;;585173;242;25052;-82
2022/07/05 01:01:15;;;;;;;3.00;1.37;;;13.80;99.90;13.20;100631;;;;585561;245;23997;-81
2022/07/05 01:03:43;;;;;;;1.63;1.17;;;13.80;99.90;13.20;100631;;;;585373;242;24001;-82
2022/07/05 01:06:11;;;;;;;2.20;1.37;;;13.80;99.90;13.20;100642;;;;585289;245;24025;-81
2022/07/05 01:08:36;;;;;;;3.30;1.50;;;13.80;99.90;13.20;100639;;;;585301;245;24003;-81
2022/07/05 01:11:07;;;;;;;1.10;1.10;;;13.80;99.90;13.20;100638;;;;585272;242;24009;-81
2022/07/05 01:13:32;;;;;;;1.27;1.27;;;13.80;99.90;13.20;100640;;;;585167;242;24035;-81
2022/07/05 01:16:00;;;;;;;1.83;1.07;;;13.80;99.90;13.10;100632;;;;585368;245;24055;-81
2022/07/05 01:18:31;;;;;;;1.53;1.30;;;13.80;99.90;13.10;100631;;;;585852;245;24048;-81
2022/07/05 01:20:59;;;;;;;1.20;1.20;;;13.70;99.90;13.10;100629;;;;585125;245;23990;-81
2022/07/05 01:23:25;;;;;;;2.33;1.00;;;13.70;99.90;13.10;100631;;;;584957;245;24055;-81
2022/07/05 01:25:56;;;;;;;1.47;1.37;;;13.70;99.90;13.10;100620;;;;585306;244;24026;-82
2022/07/05 01:28:21;;;;;;;3.27;1.60;;;13.70;99.90;13.10;100625;;;;579941;242;35854;-81
2022/07/05 01:30:49;;;;;;;3.00;1.77;;;13.70;99.90;13.10;100629;;;;580316;245;34311;-81
2022/07/05 01:33:17;;;;;;;3.20;1.37;;;13.70;99.90;13.10;100632;;;;585327;245;24005;-81
2022/07/05 01:35:46;;;;;;;1.40;1.30;;;13.60;99.90;13.00;100624;;;;585311;245;24023;-83
2022/07/05 01:38:16;;;;;;;2.53;1.07;;;13.70;99.90;13.00;100622;;;;585329;245;24046;-82
2022/07/05 01:40:41;;;;;;;1.60;1.10;;;13.70;99.90;13.00;100626;;;;584955;245;24001;-83
2022/07/05 01:43:09;;;;;;;1.17;1.17;;;13.60;99.90;13.00;100629;;;;585343;245;24017;-81
2022/07/05 01:45:40;;;;;;;1.43;1.33;;;13.70;99.90;13.10;100625;;;;586142;243;24035;-82
2022/07/05 01:48:07;;;;;;;4.87;1.57;;;13.70;99.90;13.10;100622;;;;586542;245;24045;-83
2022/07/05 01:50:50;;;;;;;1.90;1.30;;;13.70;99.90;13.00;100622;;;;585597;241;24008;-81
2022/07/05 01:53:29;;;;;;;0.97;0.97;;;13.70;99.90;13.00;100615;;;;585490;242;23993;-82
2022/07/05 01:56:01;;;;;;;2.40;0.93;;;13.60;99.90;13.00;100609;;;;585852;241;24027;-82
2022/07/05 01:58:29;;;;;;;2.90;1.20;;;13.60;99.90;13.00;100611;;;;585883;245;24161;-82
2022/07/05 02:01:00;;;;;;;1.20;1.13;;;13.60;99.90;13.00;100608;;;;585823;245;23993;-82
2022/07/05 02:03:24;;;;;;;4.57;1.50;;;13.60;99.90;13.00;100607;;;;585449;245;24005;-82
2022/07/05 02:05:52;;;;;;;0.90;0.90;;;13.60;99.90;12.90;100613;;;;585582;242;24054;-81
2022/07/05 02:08:23;;;;;;;1.17;0.97;;;13.60;99.90;12.90;100610;;;;585579;242;24025;-82
2022/07/05 02:10:50;;;;;;;1.17;1.17;;;13.50;99.90;12.80;100611;;;;585015;241;24036;-82
2022/07/05 02:13:20;;;;;;;2.20;0.80;;;13.40;99.90;12.80;100608;;;;585571;245;24001;-81
2022/07/05 02:15:47;;;;;;;2.30;1.27;;;13.40;99.90;12.80;100614;;;;585899;241;24005;-82
2022/07/05 02:18:19;;;;;;;1.17;1.07;;;13.40;99.90;12.80;100612;;;;585744;245;24035;-83
2022/07/05 02:20:44;;;;;;;1.47;1.10;;;13.40;99.90;12.70;100609;;;;585073;242;24063;-83
2022/07/05 02:23:13;;;;;;;1.70;0.90;;;13.40;99.90;12.80;100615;;;;585367;245;23993;-82
2022/07/05 02:25:44;;;;;;;0.90;0.90;;;13.40;99.90;12.80;100618;;;;585227;242;23994;-81
2022/07/05 02:28:15;;;;;;;2.03;1.23;;;13.40;99.90;12.80;100617;;;;585375;245;24009;-81
2022/07/05 02:30:40;;;;;;;1.50;1.40;;;13.40;99.90;12.80;100617;;;;585090;245;24039;-80
2022/07/05 02:33:09;;;;;;;2.10;1.50;;;13.30;99.90;12.80;100611;;;;585512;245;24000;-81
2022/07/05 02:35:37;;;;;;;1.10;1.10;;;13.40;99.90;12.80;100614;;;;585635;242;23991;-80
2022/07/05 02:38:08;;;;;;;1.73;1.40;;;13.40;99.90;12.80;100617;;;;585286;241;24015;-81
2022/07/05 02:40:37;;;;;;;4.40;1.43;;;13.40;99.90;12.90;100626;;;;585459;245;23993;-82
2022/07/05 02:43:06;;;;;;;0.90;0.90;;;13.50;99.90;12.90;100620;;;;585421;245;24005;-81
2022/07/05 02:45:34;;;;;;;1.40;1.20;;;13.50;99.90;12.90;100623;;;;585356;245;24025;-82
2022/07/05 02:48:06;;;;;;;3.30;1.33;;;13.50;99.90;13.00;100627;;;;585426;245;24054;-81
2022/07/05 02:50:30;;;;;;;3.30;1.53;;;13.60;99.90;13.00;100634;;;;585170;245;24029;-81
2022/07/05 02:52:58;;;;;;;2.40;1.10;;;13.60;99.90;12.90;100631;;;;585619;245;24025;-81
2022/07/05 02:55:26;;;;;;;1.47;1.20;;;13.60;99.90;12.90;100623;;;;585362;245;24024;-79
2022/07/05 02:57:54;;;;;;;3.63;1.20;;;13.50;99.90;13.00;100634;;;;586554;243;24016;-82
2022/07/05 03:00:22;;;;;;;3.03;1.00;;;13.60;99.90;13.00;100633;;;;586516;245;24013;-81
2022/07/05 03:02:50;;;;;;;2.50;0.90;;;13.60;99.90;13.00;100630;;;;586196;241;23988;-82
2022/07/05 03:05:19;;;;;;;1.40;1.13;;;13.60;99.90;13.10;100633;;;;586138;245;23997;-81
2022/07/05 03:07:47;;;;;;;1.60;1.10;;;13.60;99.90;13.10;100635;;;;585885;245;24016;-82
2022/07/05 03:10:14;;;;;;;0.83;0.83;;;13.70;99.90;13.20;100629;;;;585868;245;24014;-81
2022/07/05 03:12:43;;;;;;;1.50;1.00;;;13.80;99.90;13.20;100637;;;;585869;245;24005;-82
2022/07/05 03:15:11;;;;;;;1.57;0.90;;;13.80;99.90;13.30;100623;;;;585709;245;24039;-81
2022/07/05 03:17:39;;;;;;;1.70;1.20;;;13.90;99.90;13.40;100639;;;;585591;245;24008;-81
2022/07/05 03:20:08;;;;;;;2.50;1.13;;;14.20;99.90;13.70;100636;;;;586044;245;24022;-82
2022/07/05 03:22:40;;;;;;;1.17;0.93;;;14.20;99.90;14.40;100645;;;;585709;245;24023;-81
2022/07/05 03:25:03;;;;;;;1.20;0.90;;;14.80;99.90;15.30;100631;;;;585226;242;25043;-82
2022/07/05 03:27:31;;;;;;;2.63;0.80;;;15.60;99.90;16.20;100641;;;;585560;245;24032;-82
2022/07/05 03:29:59;;;;;;;1.60;0.70;;;16.50;99.90;17.10;100631;;;;585568;245;23997;-82
2022/07/05 03:32:27;;;;;;;0.77;0.73;;;17.40;99.90;17.90;100638;;;;585516;245;24032;-82
2022/07/05 03:34:55;;;;;;;1.23;0.73;;;18.30;99.90;18.70;100635;;;;585297;245;23994;-80
2022/07/05 03:37:23;;;;;;;0.50;0.50;;;19.20;99.90;19.40;100636;;;;585334;245;24009;-81
2022/07/05 03:39:51;;;;;;;0.87;0.70;;;20.60;99.90;20.10;100630;;;;585326;245;24051;-82
2022/07/05 03:42:19;;;;;;;1.40;0.87;;;20.60;99.90;20.70;100643;;;;585252;245;24005;-82
2022/07/05 03:44:47;;;;;;;0.80;0.80;;;21.30;99.90;21.50;100636;;;;585311;245;24035;-81
2022/07/05 03:47:15;;;;;;;1.50;0.80;;;22.10;99.90;22.00;100639;;;;585285;245;24069;-81
2022/07/05 03:49:44;;;;;;;3.37;1.00;;;23.10;99.90;22.50;100652;;;;585290;245;24088;-82
2022/07/05 03:52:12;;;;;;;1.20;0.67;;;23.10;99.90;23.30;100650;;;;585321;245;24107;-82
2022/07/05 03:54:40;;;;;;;2.10;0.70;;;23.80;99.90;23.70;100645;;;;585372;245;24002;-82
2022/07/05 03:57:07;;;;;;;0.63;0.63;;;24.40;99.90;24.20;100650;;;;585315;245;24001;-82
2022/07/05 03:59:36;;;;;;;1.50;0.60;;;25.30;99.10;24.70;100653;;;;585360;245;23105;-82
2022/07/05 04:02:04;;;;;;;4.40;0.80;;;25.30;99.10;25.10;100647;;;;585303;245;23019;-82
2022/07/05 04:04:32;;;;;;;1.20;0.87;;;25.80;96.90;25.60;100654;;;;585309;245;23026;-81
2022/07/05 04:07:03;;;;;;;1.10;0.67;;;26.90;93.20;26.30;100662;;;;585326;245;23035;-82
2022/07/05 04:09:28;;;;;;;0.70;0.70;;;26.80;93.10;26.90;100665;;;;586198;243;24056;-81
2022/07/05 04:12:00;;;;;;;2.10;0.77;;;27.50;89.40;27.30;100675;;;;586495;245;23027;-83
2022/07/05 04:14:24;;;;;;;1.60;0.60;;;28.10;85.40;27.50;100679;;;;585823;242;23003;-81
2022/07/05 04:16:53;;;;;;;2.03;0.70;;;28.80;79.60;27.90;100682;;;;586117;245;23046;-81
2022/07/05 04:19:21;;;;;;;0.80;0.80;;;28.80;79.60;28.40;100683;;;;585878;245;23019;-81
2022/07/05 04:21:49;;;;;;;1.23;0.80;;;29.20;76.70;29.00;100688;;;;586357;245;23027;-82
2022/07/05 04:24:16;;;;;;;1.37;0.55;;;29.80;73.20;29.50;100694;;;;585898;245;23027;-81
2022/07/05 04:26:44;;;;;;;2.55;0.57;;;30.30;70.40;29.80;100694;;;;585737;245;24014;-80
2022/07/05 04:29:12;;;;;;;1.50;0.80;;;30.70;68.70;30.40;100678;;;;585583;245;23031;-81
2022/07/05 04:31:40;;;;;;;2.17;1.00;;;31.20;66.60;31.10;100682;;;;585558;245;24019;-82
2022/07/05 04:34:08;;;;;;;3.50;0.82;;;31.90;63.60;31.40;100679;;;;585526;245;23015;-81
2022/07/05 04:36:40;;;;;;;1.42;0.68;;;32.40;61.50;31.90;100688;;;;585600;245;23011;-81
2022/07/05 04:39:04;;;;;;;1.85;0.77;;;33.50;59.00;32.60;100690;;;;585264;241;24049;-81
2022/07/05 04:41:36;;;;;;;3.75;1.20;;;33.50;58.90;33.30;100687;;;;585515;245;24068;-82
2022/07/05 04:44:00;;;;;;;1.90;0.65;;;34.20;57.50;33.80;100688;;;;585010;242;23028;-81
2022/07/05 04:46:32;;;;;;;2.85;0.70;;;34.80;56.00;34.50;100695;;;;584698;241;23030;-82
2022/07/05 04:48:57;;;;;;;0.82;0.62;;;35.50;54.60;34.90;100702;;;;585032;243;24034;-81
2022/07/05 04:51:24;;;;;;;2.03;0.90;;;36.10;53.20;35.40;100702;;;;585393;245;23087;-81
2022/07/05 04:53:52;;;;;;;1.00;0.80;;;36.50;52.40;36.00;100698;;;;585030;245;23024;-82
2022/07/05 04:56:21;;;;;;;2.65;1.27;;;37.10;50.90;36.50;100706;;;;585334;245;23026;-81
2022/07/05 04:58:49;;;;;;;2.92;1.10;;;37.60;49.10;36.60;100708;;;;585303;245;24031;-83
2022/07/05 05:01:17;;;;;;;0.90;0.90;;;38.00;48.20;37.00;100715;;;;585289;245;23065;-81
2022/07/05 05:03:45;;;;;;;1.10;0.57;;;38.20;47.70;37.40;100708;;;;585295;245;23019;-81
2022/07/05 05:06:14;;;;;;;2.78;0.80;;;38.60;47.30;37.80;100705;;;;585304;245;24058;-81
2022/07/05 05:08:41;;;;;;;2.60;0.85;;;39.30;45.40;38.10;100704;;;;585212;245;23026;-81
2022/07/05 05:11:09;;;;;;;1.52;0.93;;;39.20;45.40;38.50;100715;;;;585281;245;23089;-81
2022/07/05 05:13:37;;;;;;;2.95;1.05;;;39.70;44.90;38.90;100708;;;;585302;245;23031;-81
2022/07/05 05:16:06;;;;;;;2.15;1.08;;;40.40;45.20;39.20;100713;;;;585290;245;23031;-82
2022/07/05 05:18:34;;;;;;;2.25;1.42;;;40.30;44.50;39.80;100715;;;;585266;245;23023;-82
2022/07/05 05:21:01;;;;;;;3.72;0.98;;;40.90;43.40;40.20;100721;;;;586478;243;23006;-82
2022/07/05 05:23:29;;;;;;;1.45;1.10;;;41.30;43.00;40.70;100730;;;;586932;245;23011;-82
2022/07/05 05:25:59;;;;;;;1.65;1.02;;;41.70;43.10;41.10;100724;;;;586324;245;23011;-81
2022/07/05 05:28:27;;;;;;;3.03;1.00;;;42.10;42.40;41.50;100731;;;;586127;245;23051;-81
2022/07/05 05:30:55;;;;;;;3.22;0.90;;;42.40;41.90;41.90;100733;;;;585843;245;23023;-81
2022/07/05 05:33:24;;;;;;;1.45;1.08;;;43.10;40.50;42.10;100741;;;;585832;241;24117;-82
2022/07/05 05:35:52;;;;;;;1.35;1.05;;;43.00;40.50;42.20;100739;;;;585914;245;24041;-80
2022/07/05 05:38:19;;;;;;;4.30;0.90;;;43.20;40.70;42.50;100744;;;;585747;245;23035;-81
2022/07/05 05:40:48;;;;;;;6.65;0.98;;;43.90;39.20;43.10;100739;;;;585550;245;23029;-81
2022/07/05 05:43:16;;;;;;;5.07;0.90;;;43.80;39.10;43.30;100741;;;;585587;245;23003;-82
2022/07/05 05:45:48;;;;;;;4.75;1.00;;;44.20;39.20;43.40;100742;;;;585563;245;23034;-82
2022/07/05 05:48:12;;;;;;;2.92;1.10;;;44.60;38.80;43.90;100750;;;;585117;245;23115;-82
2022/07/05 05:50:40;;;;;;;1.80;0.93;;;44.60;38.80;44.50;100754;;;;585530;245;23000;-80
2022/07/05 05:53:10;;;;;;;2.72;0.90;;;45.10;38.10;44.60;100755;;;;585623;245;23023;-81
2022/07/05 05:55:38;;;;;;;3.67;1.10;;;45.60;37.40;44.90;100757;;;;585550;245;23040;-81
2022/07/05 05:58:18;;;;;;;1.83;1.10;;;45.60;37.40;45.30;100749;;;;585277;242;23003;-82
2022/07/05 06:00:51;;;;;;;3.12;1.10;;;46.30;36.50;45.50;100761;;;;585104;242;24069;-82
2022/07/05 06:03:17;;;;;;;2.95;0.88;;;46.30;36.50;45.90;100757;;;;585254;242;23026;-81
2022/07/05 06:05:45;;;;;;;1.08;0.98;;;46.60;35.90;46.40;100769;;;;585384;242;23007;-82
2022/07/05 06:08:16;;;;;;;0.90;0.90;;;47.00;36.00;46.60;100770;;;;585306;242;23016;-82
2022/07/05 06:10:41;;;;;;;3.33;0.93;;;47.20;35.30;46.70;100774;;;;585119;242;23007;-81
2022/07/05 06:13:09;;;;;;;1.10;1.00;;;47.30;34.90;47.00;100779;;;;585330;245;23018;-81
2022/07/05 06:15:37;;;;;;;2.65;0.90;;;47.50;34.60;47.40;100779;;;;585391;245;23021;-81
2022/07/05 06:18:04;;;;;;;3.53;1.33;;;47.90;34.60;47.60;100783;;;;585694;245;23061;-81
2022/07/05 06:20:36;;;;;;;6.25;1.60;;;48.40;34.50;47.80;100779;;;;585678;245;23016;-81
2022/07/05 06:23:05;;;;;;;3.17;1.10;;;48.30;33.80;47.90;100782;;;;585426;243;23006;-81
2022/07/05 06:25:29;;;;;;;2.55;1.40;;;48.50;33.70;48.20;100788;;;;584937;245;24025;-81
2022/07/05 06:28:00;;;;;;;1.12;1.02;;;48.80;33.70;48.30;100790;;;;585289;245;23047;-81
2022/07/05 06:30:29;;;;;;;3.42;0.93;;;48.90;33.10;48.40;100802;;;;585312;245;24060;-81
2022/07/05 06:33:00;;;;;;;3.42;1.67;;;49.00;33.10;48.40;100797;;;;586668;243;23019;-81
2022/07/05 06:35:28;;;;;;;7.07;1.67;;;49.00;33.20;48.70;100796;;;;586141;245;23046;-82
2022/07/05 06:38:00;;;;;;;1.80;1.70;;;49.60;33.10;49.20;100801;;;;580700;241;45123;-81
2022/07/05 06:40:33;;;;;;;2.90;1.20;;;49.50;33.00;49.50;100798;;;;586010;245;24230;-80
2022/07/05 06:43:01;;;;;;;2.08;0.90;;;49.90;32.90;49.90;100800;;;;585256;242;23018;-81
2022/07/05 06:45:31;;;;;;;2.00;0.80;;;50.30;32.50;50.10;100808;;;;585699;242;23007;-82
2022/07/05 06:48:03;;;;;;;2.22;0.98;;;50.50;32.20;50.30;100803;;;;585494;243;23020;-81
2022/07/05 06:50:29;;;;;;;3.58;2.45;;;50.90;31.50;50.70;100802;;;;585330;242;24059;-80
2022/07/05 06:53:00;;;;;;;9.00;5.60;;;50.90;31.50;50.80;100806;;;;585596;245;23008;-81
2022/07/05 06:55:25;;;;;;;1.15;1.12;;;51.20;31.60;50.10;100809;;;;585226;242;23015;-82
2022/07/05 06:58:02;;;;;;;3.25;1.10;;;50.80;31.30;49.40;100808;;;;585386;242;23019;-80
2022/07/05 07:00:28;;;;;;;6.53;1.65;;;50.10;31.70;49.70;100810;;;;585311;243;23028;-81
2022/07/05 07:02:55;;;;;;;1.58;1.40;;;50.00;31.60;49.40;100808;;;;585520;245;23010;-81
2022/07/05 07:05:23;;;;;;;4.05;2.17;;;49.90;31.70;48.70;100808;;;;585565;245;23039;-81
2022/07/05 07:10:38;;;;;;;3.47;1.15;;;48.50;32.20;46.90;100811;;;;585247;245;24046;-81
2022/07/05 07:13:06;;;;;;;2.40;1.00;;;47.50;33.60;46.90;100803;;;;585289;245;23118;-82
2022/07/05 07:15:34;;;;;;;2.08;1.30;;;47.40;34.50;45.60;100815;;;;585284;245;23058;-81
2022/07/05 07:18:01;;;;;;;2.95;1.00;;;46.40;34.30;44.00;100811;;;;585350;245;23034;-82
2022/07/05 07:20:33;;;;;;;1.27;0.62;;;45.00;35.10;45.10;100797;;;;585281;245;24054;-81
2022/07/05 07:22:57;;;;;;;1.23;0.88;;;45.20;36.00;46.60;100800;;;;585035;241;24064;-82
2022/07/05 07:25:25;;;;;;;1.55;0.90;;;46.40;35.30;47.80;100797;;;;585766;245;23053;-81
2022/07/05 07:27:53;;;;;;;3.65;1.00;;;47.60;34.10;48.60;100797;;;;585329;245;23062;-82
2022/07/05 07:30:23;;;;;;;2.58;0.73;;;48.40;33.30;48.80;100801;;;;585275;245;23012;-80
2022/07/05 07:32:51;;;;;;;2.53;1.10;;;48.90;32.60;49.30;100802;;;;584825;241;23027;-80
2022/07/05 07:35:21;;;;;;;2.22;1.05;;;49.40;31.90;49.10;100802;;;;585268;245;23021;-80
2022/07/05 07:37:50;;;;;;;1.55;0.90;;;49.50;31.90;48.30;100803;;;;585314;245;23100;-81
2022/07/05 07:40:18;;;;;;;1.60;1.10;;;49.00;32.50;47.40;100804;;;;585298;245;23052;-81
2022/07/05 07:42:45;;;;;;;1.65;0.80;;;48.30;32.20;46.90;100796;;;;585538;243;23015;-81
2022/07/05 07:45:13;;;;;;;1.50;0.90;;;47.70;33.20;45.80;100801;;;;586714;245;23007;-81
2022/07/05 07:47:42;;;;;;;1.25;0.88;;;46.70;33.40;44.00;100803;;;;586297;245;23056;-80
2022/07/05 07:50:14;;;;;;;3.00;1.20;;;45.20;34.20;43.30;100798;;;;586052;245;22991;-80
2022/07/05 07:52:38;;;;;;;0.88;0.80;;;44.20;35.80;42.70;100793;;;;585647;242;22999;-81
2022/07/05 07:55:06;;;;;;;4.40;1.30;;;43.50;35.80;43.40;100794;;;;585831;245;23034;-81
2022/07/05 07:57:34;;;;;;;3.20;0.80;;;43.50;36.40;44.20;100794;;;;585693;241;23040;-81
2022/07/05 08:00:02;;;;;;;1.15;0.80;;;44.30;35.80;43.00;100799;;;;585830;245;23015;-81
2022/07/05 08:02:30;;;;;;;1.40;0.77;;;43.70;36.10;44.00;100801;;;;580466;241;34305;-81
2022/07/05 08:04:58;;;;;;;3.90;1.02;;;44.10;36.00;43.70;100790;;;;585515;245;23041;-82
2022/07/05 08:07:25;;;;;;;0.70;0.70;;;44.20;35.30;42.00;100794;;;;585583;245;23054;-82
2022/07/05 08:09:53;;;;;;;3.03;0.80;;;43.10;35.70;40.20;100797;;;;585547;245;29409;-80
2022/07/05 08:12:22;;;;;;;1.12;0.85;;;40.10;38.70;39.20;100794;;;;585562;245;24040;-80
2022/07/05 08:14:50;;;;;;;2.12;1.00;;;40.00;39.30;39.40;100791;;;;585539;245;23007;-81
2022/07/05 08:17:20;;;;;;;2.12;0.80;;;39.80;39.50;40.70;100786;;;;585547;245;23047;-82
2022/07/05 08:22:27;;;;;;;1.23;0.75;;;41.60;38.60;41.30;100793;;;;574355;245;22993;-81
2022/07/05 08:24:55;;;;;;;2.25;1.55;;;41.50;38.40;40.30;100796;;;;585273;245;23035;-81
2022/07/05 08:27:23;;;;;;;4.72;1.58;;;41.10;38.50;39.60;100784;;;;585797;245;24052;-81
2022/07/05 08:29:51;;;;;;;1.98;1.10;;;40.20;39.70;39.80;100788;;;;585405;245;23011;-81
2022/07/05 08:32:19;;;;;;;1.62;0.90;;;40.20;39.70;41.80;100788;;;;580199;245;34269;-81
2022/07/05 08:34:47;;;;;;;2.85;1.30;;;41.70;39.80;42.10;100788;;;;585289;245;23032;-83
2022/07/05 08:37:16;;;;;;;1.50;1.20;;;41.60;37.90;40.80;100793;;;;585307;245;23008;-81
2022/07/05 08:39:44;;;;;;;2.40;1.02;;;41.60;37.90;39.20;100794;;;;585275;245;24021;-81
2022/07/05 08:42:12;;;;;;;0.98;0.93;;;40.30;38.80;39.30;100794;;;;585308;245;24046;-80
2022/07/05 08:44:40;;;;;;;1.80;0.85;;;39.80;40.30;40.20;100790;;;;585551;245;23019;-81
2022/07/05 08:47:14;;;;;;;2.15;1.23;;;40.90;39.80;40.50;100788;;;;585179;245;23037;-82
2022/07/05 08:49:42;;;;;;;1.95;0.90;;;40.90;39.70;39.90;100795;;;;585026;245;23059;-81
2022/07/05 08:52:07;;;;;;;2.62;1.05;;;40.60;39.30;39.30;100792;;;;585077;245;23032;-81
2022/07/05 08:54:34;;;;;;;3.40;0.98;;;40.00;40.00;39.70;100792;;;;585526;242;23026;-81
2022/07/05 08:57:03;;;;;;;0.88;0.65;;;39.90;40.00;39.50;100794;;;;586587;241;23042;-81
2022/07/05 08:59:31;;;;;;;1.20;0.80;;;39.90;39.30;41.10;100793;;;;586266;245;23006;-80
2022/07/05 09:01:59;;;;;;;0.85;0.80;;;41.00;39.80;43.40;100783;;;;586103;245;23011;-80
2022/07/05 09:04:27;;;;;;;3.22;0.55;;;43.00;38.30;45.30;100791;;;;585856;241;23018;-81
2022/07/05 09:06:55;;;;;;;0.68;0.68;;;46.90;35.30;47.00;100782;;;;585639;242;23010;-82
2022/07/05 09:09:23;;;;;;;2.53;1.00;;;46.90;35.30;47.20;100788;;;;585562;241;23026;-81
2022/07/05 09:11:52;;;;;;;2.62;2.42;;;48.00;33.50;45.30;100782;;;;585754;241;23038;-82
2022/07/05 09:14:20;;;;;;;4.82;1.10;;;45.20;34.20;43.20;100786;;;;585560;245;23086;-82
2022/07/05 09:16:48;;;;;;;3.85;1.12;;;45.20;34.20;42.50;100790;;;;585048;242;23003;-82
2022/07/05 09:19:16;;;;;;;3.28;0.90;;;44.00;35.70;42.40;100782;;;;585606;245;23039;-82
2022/07/05 09:21:43;;;;;;;3.60;1.40;;;43.40;36.60;42.90;100780;;;;585624;245;23027;-81
2022/07/05 09:24:15;;;;;;;1.20;1.10;;;44.10;35.90;43.40;100784;;;;585597;245;23003;-81
2022/07/05 09:26:40;;;;;;;0.98;0.90;;;44.10;35.80;42.30;100788;;;;585323;245;23015;-80
2022/07/05 09:29:11;;;;;;;4.35;1.10;;;43.40;36.00;40.90;100785;;;;586051;242;23054;-82
2022/07/05 09:31:42;;;;;;;1.40;0.90;;;41.10;37.70;40.00;100788;;;;584796;242;23008;-83
2022/07/05 09:34:13;;;;;;;2.33;1.00;;;41.00;37.60;40.50;100775;;;;585365;245;23038;-81
2022/07/05 09:36:56;;;;;;;2.62;1.15;;;41.10;38.20;40.00;100774;;;;584722;245;23019;-81
2022/07/05 09:39:30;;;;;;;2.10;1.20;;;40.90;37.60;38.80;100777;;;;585353;242;23000;-81
2022/07/05 09:42:20;;;;;;;4.75;1.77;;;39.80;38.30;37.10;100764;;;;585399;245;23037;-81
2022/07/05 09:44:48;;;;;;;1.83;1.27;;;38.40;39.50;35.50;100773;;;;585208;245;25129;-82
2022/07/05 09:47:19;;;;;;;1.23;1.10;;;36.60;41.80;35.50;100764;;;;573830;245;23016;-83
2022/07/05 09:49:52;;;;;;;1.12;1.08;;;36.00;43.30;37.70;100760;;;;583511;241;23061;-83
2022/07/05 09:52:35;;;;;;;1.00;1.00;;;37.60;43.10;40.20;100771;;;;575204;245;22995;-82
2022/07/05 09:55:16;;;;;;;3.25;2.47;;;42.50;38.30;42.40;100759;;;;574945;245;23002;-83
2022/07/05 09:57:44;;;;;;;0.90;0.90;;;42.50;38.30;44.40;100752;;;;574121;245;23031;-81
2022/07/05 10:00:11;;;;;;;1.10;1.02;;;44.80;36.30;46.20;100753;;;;574847;245;23043;-81
2022/07/05 10:02:42;;;;;;;1.05;1.05;;;46.80;34.80;47.60;100751;;;;583790;245;22992;-81
2022/07/05 10:05:13;;;;;;;3.33;1.00;;;48.50;33.50;48.90;100746;;;;575169;245;24092;-83
2022/07/05 10:07:40;;;;;;;1.10;1.00;;;49.90;32.10;49.50;100747;;;;576400;245;23024;-82
2022/07/05 10:10:06;;;;;;;1.35;1.23;;;50.80;31.30;50.30;100748;;;;574970;245;23027;-81
2022/07/05 10:12:34;;;;;;;5.57;1.00;;;51.70;30.80;50.70;100738;;;;575965;245;24011;-82
2022/07/05 10:15:05;;;;;;;2.08;1.90;;;52.30;30.50;51.20;100743;;;;575835;245;23024;-81
2022/07/05 10:17:29;;;;;;;1.67;1.58;;;52.70;29.70;51.30;100745;;;;575531;245;23047;-82
2022/07/05 10:20:01;;;;;;;1.33;1.15;;;52.90;29.90;50.70;100751;;;;575310;245;23042;-83
2022/07/05 10:22:25;;;;;;;1.75;1.10;;;52.50;29.90;50.40;100757;;;;575382;245;23011;-81
2022/07/05 10:24:53;;;;;;;3.97;1.10;;;52.20;29.70;49.80;100744;;;;575504;245;23011;-83
2022/07/05 10:27:25;;;;;;;1.90;1.25;;;51.10;30.80;49.40;100743;;;;575430;245;23040;-81
2022/07/05 10:29:52;;;;;;;4.47;1.30;;;50.90;30.30;49.40;100747;;;;575214;245;23017;-81
2022/07/05 10:32:22;;;;;;;1.70;1.50;;;50.90;30.30;48.90;100743;;;;575202;245;23045;-82
2022/07/05 10:34:52;;;;;;;2.53;1.55;;;49.90;31.20;48.20;100747;;;;574543;245;24114;-81
2022/07/05 10:37:21;;;;;;;2.70;1.30;;;49.80;31.10;47.60;100753;;;;574631;245;23037;-80
2022/07/05 10:39:50;;;;;;;1.27;1.20;;;48.40;32.20;46.90;100746;;;;574630;245;24088;-82
2022/07/05 10:42:19;;;;;;;4.57;1.67;;;47.30;32.90;45.80;100746;;;;583900;241;22994;-80
2022/07/05 10:44:47;;;;;;;2.08;1.10;;;47.30;32.80;44.40;100739;;;;573783;245;23019;-83
2022/07/05 10:47:15;;;;;;;1.48;1.37;;;45.80;33.60;43.20;100742;;;;574943;245;22991;-82
2022/07/05 10:49:44;;;;;;;2.55;1.00;;;44.20;34.70;42.20;100737;;;;574738;245;23011;-80
2022/07/05 10:52:24;;;;;;;1.10;1.10;;;42.70;36.50;41.30;100734;;;;574710;245;23072;-80
2022/07/05 10:55:22;;;;;;;1.10;0.90;;;41.60;37.80;40.20;100733;;;;574640;245;24052;-82
2022/07/05 10:58:18;;;;;;;6.10;5.33;;;40.30;38.90;38.20;100737;;;;570208;245;34275;-82
2022/07/05 11:00:52;;;;;;;2.12;1.25;;;38.70;40.30;36.80;100734;;;;575002;245;23057;-82
2022/07/05 11:03:40;;;;;;;2.12;1.00;;;35.90;41.40;35.50;100724;;;;570375;245;23030;-82
2022/07/05 11:06:08;;;;;;;1.75;1.00;;;35.80;41.30;34.90;100722;;;;574835;245;23063;-82
2022/07/05 11:09:00;;;;;;;2.80;1.20;;;35.00;42.90;34.20;100716;;;;570047;245;34265;-81
2022/07/05 11:11:47;;;;;;;1.08;1.00;;;34.40;45.20;33.40;100717;;;;574741;245;23021;-81
2022/07/05 11:14:25;;;;;;;1.85;1.10;;;33.00;46.90;33.00;100722;;;;565497;245;23041;-81
2022/07/05 11:17:12;;;;;;;1.20;1.10;;;32.90;46.10;32.70;100711;;;;575242;245;23013;-81
2022/07/05 11:20:01;;;;;;;3.20;1.12;;;32.60;46.50;32.30;100718;;;;576291;245;23089;-82
2022/07/05 11:22:28;;;;;;;1.98;0.90;;;32.30;47.30;32.10;100717;;;;563397;250;23215;-81
2022/07/05 11:24:56;;;;;;;1.50;1.00;;;32.00;48.60;31.80;100701;;;;582075;243;23108;-81